createdAt,value
2017-07-18T00:00:53.678Z,1016.97
2017-07-18T00:02:03.596Z,1016.92
2017-07-18T00:03:13.868Z,1016.94
2017-07-18T00:04:23.809Z,1016.94
2017-07-18T00:05:34.190Z,1016.93
2017-07-18T00:06:44.096Z,1016.9
2017-07-18T00:07:53.420Z,1016.95
2017-07-18T00:09:03.339Z,1016.99
2017-07-18T00:10:13.586Z,1016.98
2017-07-18T00:11:24.184Z,1016.97
2017-07-18T00:12:33.488Z,1016.95
2017-07-18T00:13:43.403Z,1016.94
2017-07-18T00:14:53.644Z,1016.93
2017-07-18T00:16:03.562Z,1016.97
2017-07-18T00:17:13.810Z,1016.96
2017-07-18T00:18:22.803Z,1016.91
2017-07-18T00:19:33.043Z,1016.92
2017-07-18T00:20:43.264Z,1016.91
2017-07-18T00:21:53.490Z,1016.89
2017-07-18T00:23:03.712Z,1016.85
2017-07-18T00:24:13.338Z,1016.89
2017-07-18T00:25:22.340Z,1016.87
2017-07-18T00:26:32.274Z,1016.87
2017-07-18T00:27:42.241Z,1016.88
2017-07-18T00:28:52.478Z,1016.9
2017-07-18T00:30:02.701Z,1016.9
2017-07-18T00:31:12.641Z,1016.93
2017-07-18T00:32:22.880Z,1016.92
2017-07-18T00:33:32.856Z,1016.91
2017-07-18T00:34:43.179Z,1016.91
2017-07-18T00:35:53.436Z,1016.88
2017-07-18T00:37:03.349Z,1016.87
2017-07-18T00:38:13.261Z,1016.85
2017-07-18T00:39:23.184Z,1016.81
2017-07-18T00:40:34.136Z,1016.83
2017-07-18T00:41:44.050Z,1016.81
2017-07-18T00:42:54.273Z,1016.81
2017-07-18T00:44:04.219Z,1016.86
2017-07-18T00:45:14.139Z,1016.81
2017-07-18T00:46:24.201Z,1016.84
2017-07-18T00:47:34.110Z,1016.77
2017-07-18T00:48:43.711Z,1016.79
2017-07-18T00:49:53.330Z,1016.78
2017-07-18T00:51:03.250Z,1016.78
2017-07-18T00:52:13.280Z,1016.79
2017-07-18T00:53:23.514Z,1016.81
2017-07-18T00:54:33.125Z,1016.76
2017-07-18T00:55:42.757Z,1016.81
2017-07-18T00:56:52.671Z,1016.82
2017-07-18T00:58:02.586Z,1016.76
2017-07-18T00:59:12.816Z,1016.78
2017-07-18T01:00:22.428Z,1016.75
2017-07-18T01:01:32.349Z,1016.76
2017-07-18T01:02:42.260Z,1016.7
2017-07-18T01:03:51.865Z,1016.68
2017-07-18T01:05:01.502Z,1016.7
2017-07-18T01:06:11.720Z,1016.71
2017-07-18T01:07:21.967Z,1016.72
2017-07-18T01:08:31.581Z,1016.72
2017-07-18T01:09:41.253Z,1016.71
2017-07-18T01:10:51.160Z,1016.72
2017-07-18T01:12:01.375Z,1016.7
2017-07-18T01:13:11.301Z,1016.7
2017-07-18T01:14:21.218Z,1016.68
2017-07-18T01:15:31.447Z,1016.67
2017-07-18T01:16:41.053Z,1016.65
2017-07-18T01:17:51.010Z,1016.64
2017-07-18T01:19:01.223Z,1016.65
2017-07-18T01:20:11.154Z,1016.63
2017-07-18T01:21:21.088Z,1016.65
2017-07-18T01:22:31.299Z,1016.63
2017-07-18T01:23:40.908Z,1016.63
2017-07-18T01:24:51.128Z,1016.6
2017-07-18T01:26:01.055Z,1016.58
2017-07-18T01:27:11.042Z,1016.56
2017-07-18T01:28:20.957Z,1016.58
2017-07-18T01:29:30.880Z,1016.57
2017-07-18T01:30:41.097Z,1016.57
2017-07-18T01:31:51.321Z,1016.58
2017-07-18T01:33:01.591Z,1016.53
2017-07-18T01:34:11.818Z,1016.56
2017-07-18T01:35:21.429Z,1016.54
2017-07-18T01:36:30.769Z,1016.5
2017-07-18T01:37:41.011Z,1016.52
2017-07-18T01:38:51.086Z,1016.5
2017-07-18T01:40:01.312Z,1016.51
2017-07-18T01:41:10.637Z,1016.49
2017-07-18T01:42:20.248Z,1016.51
2017-07-18T01:43:29.868Z,1016.51
2017-07-18T01:44:40.082Z,1016.49
2017-07-18T01:45:49.402Z,1016.49
2017-07-18T01:46:59.631Z,1016.49
2017-07-18T01:48:09.248Z,1016.45
2017-07-18T01:49:18.898Z,1016.48
2017-07-18T01:50:28.982Z,1016.46
2017-07-18T01:51:38.592Z,1016.46
2017-07-18T01:52:48.503Z,1016.48
2017-07-18T01:53:58.428Z,1016.47
2017-07-18T01:55:08.672Z,1016.45
2017-07-18T01:56:18.942Z,1016.43
2017-07-18T01:57:29.165Z,1016.46
2017-07-18T01:58:39.369Z,1016.43
2017-07-18T01:59:49.289Z,1016.44
2017-07-18T02:00:58.893Z,1016.39
2017-07-18T02:02:08.510Z,1016.41
2017-07-18T02:03:18.129Z,1016.42
2017-07-18T02:04:28.346Z,1016.4
2017-07-18T02:05:38.266Z,1016.41
2017-07-18T02:06:48.192Z,1016.42
2017-07-18T02:07:57.855Z,1016.41
2017-07-18T02:09:07.462Z,1016.39
2017-07-18T02:10:17.392Z,1016.4
2017-07-18T02:11:27.379Z,1016.4
2017-07-18T02:12:36.990Z,1016.39
2017-07-18T02:13:47.110Z,1016.34
2017-07-18T02:14:57.021Z,1016.32
2017-07-18T02:16:06.933Z,1016.32
2017-07-18T02:17:17.163Z,1016.31
2017-07-18T02:18:27.379Z,1016.31
2017-07-18T02:19:37.457Z,1016.29
2017-07-18T02:20:47.072Z,1016.3
2017-07-18T02:21:56.713Z,1016.29
2017-07-18T02:23:06.953Z,1016.32
2017-07-18T02:24:16.886Z,1016.3
2017-07-18T02:25:26.655Z,1016.31
2017-07-18T02:26:36.257Z,1016.32
2017-07-18T02:27:45.873Z,1016.33
2017-07-18T02:28:55.498Z,1016.31
2017-07-18T02:30:05.111Z,1016.31
2017-07-18T02:31:15.037Z,1016.31
2017-07-18T02:32:25.259Z,1016.27
2017-07-18T02:33:35.207Z,1016.29
2017-07-18T02:34:45.123Z,1016.3
2017-07-18T02:35:55.383Z,1016.26
2017-07-18T02:37:05.610Z,1016.27
2017-07-18T02:38:15.844Z,1016.26
2017-07-18T02:39:25.764Z,1016.26
2017-07-18T02:40:35.380Z,1016.22
2017-07-18T02:41:45.349Z,1016.22
2017-07-18T02:42:55.565Z,1016.2
2017-07-18T02:44:05.496Z,1016.16
2017-07-18T02:45:15.106Z,1016.2
2017-07-18T02:46:24.401Z,1016.15
2017-07-18T02:47:34.342Z,1016.14
2017-07-18T02:48:44.729Z,1016.15
2017-07-18T02:49:54.975Z,1016.09
2017-07-18T02:51:04.920Z,1016.12
2017-07-18T02:52:14.541Z,1016.14
2017-07-18T02:53:24.472Z,1016.1
2017-07-18T02:54:34.444Z,1016.13
2017-07-18T02:55:44.052Z,1016.07
2017-07-18T02:56:53.980Z,1016.15
2017-07-18T02:58:03.914Z,1016.07
2017-07-18T02:59:13.840Z,1016.1
2017-07-18T03:00:23.600Z,1016.06
2017-07-18T03:01:33.230Z,1016.06
2017-07-18T03:02:43.141Z,1016.04
2017-07-18T03:03:52.754Z,1016.05
2017-07-18T03:05:02.983Z,1016.04
2017-07-18T03:06:12.905Z,1016.08
2017-07-18T03:07:22.222Z,1016.09
2017-07-18T03:08:32.159Z,1016.08
2017-07-18T03:09:41.782Z,1016.05
2017-07-18T03:10:51.688Z,1016.04
2017-07-18T03:12:02.075Z,1016.04
2017-07-18T03:13:12.312Z,1016.05
2017-07-18T03:14:21.608Z,1016.06
2017-07-18T03:15:31.240Z,1016.08
2017-07-18T03:16:40.555Z,1016.08
2017-07-18T03:17:50.633Z,1016.11
2017-07-18T03:19:00.552Z,1016.07
2017-07-18T03:20:10.791Z,1016.13
2017-07-18T03:21:20.099Z,1016.13
2017-07-18T03:22:30.322Z,1016.14
2017-07-18T03:23:40.271Z,1016.11
2017-07-18T03:24:50.187Z,1016.1
2017-07-18T03:26:00.415Z,1016.12
2017-07-18T03:27:10.649Z,1016.08
2017-07-18T03:28:20.865Z,1016.06
2017-07-18T03:29:30.528Z,1016.08
2017-07-18T03:30:41.127Z,1016.11
2017-07-18T03:31:50.788Z,1016.11
2017-07-18T03:33:00.721Z,1016.1
2017-07-18T03:34:10.956Z,1016.08
2017-07-18T03:35:20.882Z,1016.06
2017-07-18T03:36:31.107Z,1016.06
2017-07-18T03:37:41.039Z,1016.08
2017-07-18T03:38:50.356Z,1016.1
2017-07-18T03:40:00.599Z,1016.08
2017-07-18T03:41:10.683Z,1016.06
2017-07-18T03:42:20.597Z,1016.06
2017-07-18T03:43:30.211Z,1016.11
2017-07-18T03:44:40.441Z,1016.12
2017-07-18T03:45:50.681Z,1016.13
2017-07-18T03:47:00.702Z,1016.12
2017-07-18T03:48:10.003Z,1016.17
2017-07-18T03:49:19.934Z,1016.11
2017-07-18T03:50:29.865Z,1016.09
2017-07-18T03:51:40.114Z,1016.05
2017-07-18T03:52:49.728Z,1016.07
2017-07-18T03:53:59.970Z,1016.1
2017-07-18T03:55:10.215Z,1016.1
2017-07-18T03:56:19.820Z,1016.12
2017-07-18T03:57:29.447Z,1016.12
2017-07-18T03:58:39.219Z,1016.16
2017-07-18T03:59:49.442Z,1016.19
2017-07-18T04:00:59.694Z,1016.15
2017-07-18T04:02:09.635Z,1016.14
2017-07-18T04:03:19.259Z,1016.16
2017-07-18T04:04:29.591Z,1016.11
2017-07-18T04:05:39.227Z,1016.11
2017-07-18T04:06:49.460Z,1016.09
2017-07-18T04:07:59.390Z,1016.09
2017-07-18T04:09:09.410Z,1016.08
2017-07-18T04:10:19.172Z,1016.08
2017-07-18T04:11:29.102Z,1016.13
2017-07-18T04:12:39.032Z,1016.08
2017-07-18T04:13:48.965Z,1016.12
2017-07-18T04:14:59.213Z,1016.12
2017-07-18T04:16:09.312Z,1016.19
2017-07-18T04:17:19.252Z,1016.2
2017-07-18T04:18:29.194Z,1016.23
2017-07-18T04:19:39.429Z,1016.22
2017-07-18T04:20:49.647Z,1016.24
2017-07-18T04:21:59.993Z,1016.27
2017-07-18T04:23:10.589Z,1016.29
2017-07-18T04:24:20.188Z,1016.26
2017-07-18T04:25:29.511Z,1016.32
2017-07-18T04:26:39.117Z,1016.27
2017-07-18T04:27:49.380Z,1016.28
2017-07-18T04:28:59.596Z,1016.26
2017-07-18T04:30:09.514Z,1016.26
2017-07-18T04:31:19.755Z,1016.28
2017-07-18T04:32:29.983Z,1016.26
2017-07-18T04:33:39.964Z,1016.32
2017-07-18T04:34:49.883Z,1016.36
2017-07-18T04:36:00.116Z,1016.3
2017-07-18T04:37:10.053Z,1016.33
2017-07-18T04:38:19.662Z,1016.35
2017-07-18T04:39:29.970Z,1016.3
2017-07-18T04:40:39.579Z,1016.3
2017-07-18T04:41:49.505Z,1016.27
2017-07-18T04:42:59.471Z,1016.24
2017-07-18T04:44:09.405Z,1016.3
2017-07-18T04:45:19.396Z,1016.24
2017-07-18T04:46:29.315Z,1016.25
2017-07-18T04:47:39.554Z,1016.29
2017-07-18T04:48:49.471Z,1016.23
2017-07-18T04:49:59.718Z,1016.24
2017-07-18T04:51:09.812Z,1016.26
2017-07-18T04:52:20.047Z,1016.22
2017-07-18T04:53:29.983Z,1016.24
2017-07-18T04:54:39.600Z,1016.2
2017-07-18T04:55:49.238Z,1016.21
2017-07-18T04:56:59.206Z,1016.18
2017-07-18T04:58:09.150Z,1016.2
2017-07-18T04:59:19.064Z,1016.23
2017-07-18T05:00:28.693Z,1016.21
2017-07-18T05:01:38.634Z,1016.23
2017-07-18T05:02:48.699Z,1016.24
2017-07-18T05:03:58.018Z,1016.24
2017-07-18T05:05:08.259Z,1016.23
2017-07-18T05:06:18.489Z,1016.22
2017-07-18T05:07:28.417Z,1016.21
2017-07-18T05:08:38.381Z,1016.24
2017-07-18T05:09:48.302Z,1016.26
2017-07-18T05:10:58.529Z,1016.26
2017-07-18T05:12:08.766Z,1016.24
2017-07-18T05:13:18.997Z,1016.24
2017-07-18T05:14:28.641Z,1016.19
2017-07-18T05:15:38.886Z,1016.24
2017-07-18T05:16:49.104Z,1016.23
2017-07-18T05:17:59.053Z,1016.21
2017-07-18T05:19:08.992Z,1016.27
2017-07-18T05:20:19.214Z,1016.24
2017-07-18T05:21:29.147Z,1016.26
2017-07-18T05:22:39.363Z,1016.25
2017-07-18T05:23:49.641Z,1016.27
2017-07-18T05:24:59.617Z,1016.23
2017-07-18T05:26:09.587Z,1016.28
2017-07-18T05:27:18.931Z,1016.28
2017-07-18T05:28:28.574Z,1016.23
2017-07-18T05:29:38.823Z,1016.28
2017-07-18T05:30:48.466Z,1016.23
2017-07-18T05:31:58.823Z,1016.25
2017-07-18T05:33:08.752Z,1016.22
2017-07-18T05:34:18.987Z,1016.24
2017-07-18T05:35:29.255Z,1016.23
2017-07-18T05:36:39.003Z,1016.16
2017-07-18T05:37:49.093Z,1016.2
2017-07-18T05:38:58.385Z,1016.16
2017-07-18T05:40:07.998Z,1016.21
2017-07-18T05:41:17.639Z,1016.2
2017-07-18T05:42:27.550Z,1016.2
2017-07-18T05:43:37.898Z,1016.22
2017-07-18T05:44:47.213Z,1016.12
2017-07-18T05:45:56.825Z,1016.18
2017-07-18T05:47:07.061Z,1016.16
2017-07-18T05:48:17.293Z,1016.17
2017-07-18T05:49:27.529Z,1016.18
2017-07-18T05:50:37.795Z,1016.2
2017-07-18T05:51:47.732Z,1016.19
2017-07-18T05:52:57.641Z,1016.19
2017-07-18T05:54:07.273Z,1016.15
2017-07-18T05:55:17.345Z,1016.17
2017-07-18T05:56:27.707Z,1016.17
2017-07-18T05:57:37.353Z,1016.12
2017-07-18T05:58:46.972Z,1016.16
2017-07-18T05:59:56.604Z,1016.14
2017-07-18T06:01:06.697Z,1016.13
2017-07-18T06:02:16.619Z,1016.15
2017-07-18T06:03:26.580Z,1016.12
2017-07-18T06:04:36.811Z,1016.13
2017-07-18T06:05:47.044Z,1016.15
2017-07-18T06:06:56.728Z,1016.16
2017-07-18T06:08:06.967Z,1016.11
2017-07-18T06:09:16.898Z,1016.07
2017-07-18T06:10:26.526Z,1016.05
2017-07-18T06:11:35.835Z,1016.08
2017-07-18T06:12:46.243Z,1016.09
2017-07-18T06:13:55.552Z,1016.08
2017-07-18T06:15:05.795Z,1016.05
2017-07-18T06:16:15.411Z,1016.06
2017-07-18T06:17:24.738Z,1016.05
2017-07-18T06:18:35.121Z,1016.08
2017-07-18T06:19:45.052Z,1016.02
2017-07-18T06:20:55.293Z,1016.04
2017-07-18T06:22:05.538Z,1016.04
2017-07-18T06:23:15.476Z,1016.07
2017-07-18T06:24:25.393Z,1016.05
2017-07-18T06:25:35.352Z,1016.01
2017-07-18T06:26:45.272Z,1015.97
2017-07-18T06:27:54.913Z,1015.99
2017-07-18T06:29:05.182Z,1015.96
2017-07-18T06:30:15.187Z,1015.93
2017-07-18T06:31:25.134Z,1015.92
2017-07-18T06:32:34.787Z,1015.94
2017-07-18T06:33:45.050Z,1015.93
2017-07-18T06:34:54.668Z,1015.92
2017-07-18T06:36:05.259Z,1015.91
2017-07-18T06:37:14.894Z,1015.92
2017-07-18T06:38:24.838Z,1015.92
2017-07-18T06:39:35.084Z,1015.93
2017-07-18T06:40:44.713Z,1015.95
2017-07-18T06:41:54.645Z,1015.94
2017-07-18T06:43:04.901Z,1015.88
2017-07-18T06:44:14.838Z,1015.9
2017-07-18T06:45:24.779Z,1015.84
2017-07-18T06:46:34.086Z,1015.84
2017-07-18T06:47:43.858Z,1015.84
2017-07-18T06:48:53.490Z,1015.82
2017-07-18T06:50:03.442Z,1015.8
2017-07-18T06:51:13.699Z,1015.78
2017-07-18T06:52:23.939Z,1015.78
2017-07-18T06:53:33.357Z,1015.77
2017-07-18T06:54:43.290Z,1015.76
2017-07-18T06:55:53.237Z,1015.76
2017-07-18T06:57:03.493Z,1015.76
2017-07-18T06:58:13.758Z,1015.75
2017-07-18T06:59:24.532Z,1015.76
2017-07-18T07:00:34.472Z,1015.75
2017-07-18T07:01:44.124Z,1015.75
2017-07-18T07:02:53.777Z,1015.73
2017-07-18T07:04:03.725Z,1015.77
2017-07-18T07:05:13.530Z,1015.72
2017-07-18T07:06:23.182Z,1015.73
2017-07-18T07:07:32.824Z,1015.75
2017-07-18T07:08:43.086Z,1015.75
2017-07-18T07:09:53.328Z,1015.74
2017-07-18T07:11:03.403Z,1015.72
2017-07-18T07:12:13.046Z,1015.74
2017-07-18T07:13:22.685Z,1015.7
2017-07-18T07:14:32.648Z,1015.73
2017-07-18T07:15:42.577Z,1015.71
2017-07-18T07:16:52.230Z,1015.76
2017-07-18T07:18:02.162Z,1015.66
2017-07-18T07:19:12.096Z,1015.68
2017-07-18T07:20:21.111Z,1015.67
2017-07-18T07:21:30.753Z,1015.67
2017-07-18T07:22:41.293Z,1015.66
2017-07-18T07:23:51.236Z,1015.64
2017-07-18T07:25:01.183Z,1015.68
2017-07-18T07:26:10.213Z,1015.67
2017-07-18T07:27:20.187Z,1015.66
2017-07-18T07:28:30.567Z,1015.64
2017-07-18T07:29:40.193Z,1015.6
2017-07-18T07:30:50.436Z,1015.63
2017-07-18T07:32:00.380Z,1015.61
2017-07-18T07:33:10.628Z,1015.59
2017-07-18T07:34:20.403Z,1015.62
2017-07-18T07:35:30.361Z,1015.63
2017-07-18T07:36:40.290Z,1015.6
2017-07-18T07:37:50.225Z,1015.61
2017-07-18T07:39:00.166Z,1015.62
2017-07-18T07:40:10.296Z,1015.62
2017-07-18T07:41:19.939Z,1015.61
2017-07-18T07:42:29.579Z,1015.62
2017-07-18T07:43:39.508Z,1015.61
2017-07-18T07:44:49.421Z,1015.62
2017-07-18T07:45:59.758Z,1015.59
2017-07-18T07:47:09.700Z,1015.6
2017-07-18T07:48:19.993Z,1015.58
2017-07-18T07:49:30.224Z,1015.52
2017-07-18T07:50:39.835Z,1015.53
2017-07-18T07:51:49.602Z,1015.51
2017-07-18T07:52:59.836Z,1015.48
2017-07-18T07:54:09.454Z,1015.48
2017-07-18T07:55:19.398Z,1015.51
2017-07-18T07:56:29.312Z,1015.5
2017-07-18T07:57:39.248Z,1015.53
2017-07-18T07:58:48.871Z,1015.47
2017-07-18T07:59:58.192Z,1015.42
2017-07-18T08:01:08.122Z,1015.42
2017-07-18T08:02:17.746Z,1015.44
2017-07-18T08:03:27.511Z,1015.38
2017-07-18T08:04:37.431Z,1015.33
2017-07-18T08:05:47.047Z,1015.33
2017-07-18T08:06:56.965Z,1015.36
2017-07-18T08:08:06.882Z,1015.37
2017-07-18T08:09:17.274Z,1015.35
2017-07-18T08:10:27.219Z,1015.35
2017-07-18T08:11:37.448Z,1015.34
2017-07-18T08:12:47.748Z,1015.36
2017-07-18T08:13:58.023Z,1015.3
2017-07-18T08:15:07.940Z,1015.31
2017-07-18T08:16:18.163Z,1015.3
2017-07-18T08:17:28.390Z,1015.28
2017-07-18T08:18:38.328Z,1015.33
2017-07-18T08:19:47.939Z,1015.25
2017-07-18T08:20:58.164Z,1015.19
2017-07-18T08:22:08.134Z,1015.17
2017-07-18T08:23:17.815Z,1015.15
2017-07-18T08:24:27.747Z,1015.15
2017-07-18T08:25:37.378Z,1015.11
2017-07-18T08:26:47.233Z,1015.12
2017-07-18T08:27:57.158Z,1015.1
2017-07-18T08:29:07.087Z,1015.12
2017-07-18T08:30:17.315Z,1015.08
2017-07-18T08:31:26.641Z,1015.08
2017-07-18T08:32:36.426Z,1015.08
2017-07-18T08:33:46.352Z,1015.04
2017-07-18T08:34:56.297Z,1015.02
2017-07-18T08:36:05.921Z,1015.08
2017-07-18T08:37:15.853Z,1015.03
2017-07-18T08:38:26.492Z,1015.03
2017-07-18T08:39:36.466Z,1015
2017-07-18T08:40:46.726Z,1015
2017-07-18T08:41:56.684Z,1014.96
2017-07-18T08:43:06.325Z,1014.99
2017-07-18T08:44:16.156Z,1014.98
2017-07-18T08:45:25.854Z,1014.95
2017-07-18T08:46:36.095Z,1014.93
2017-07-18T08:47:46.030Z,1014.96
2017-07-18T08:48:55.996Z,1014.94
2017-07-18T08:50:06.449Z,1014.92
2017-07-18T08:51:16.441Z,1014.94
2017-07-18T08:52:25.784Z,1014.95
2017-07-18T08:53:35.724Z,1014.93
2017-07-18T08:54:45.992Z,1014.93
2017-07-18T08:55:55.925Z,1014.9
2017-07-18T08:57:05.871Z,1014.94
2017-07-18T08:58:15.506Z,1014.92
2017-07-18T08:59:25.748Z,1014.92
2017-07-18T09:00:35.984Z,1014.9
2017-07-18T09:01:46.219Z,1014.86
2017-07-18T09:02:55.845Z,1014.92
2017-07-18T09:04:05.769Z,1014.94
2017-07-18T09:05:15.711Z,1014.94
2017-07-18T09:06:25.636Z,1014.94
2017-07-18T09:07:35.717Z,1014.94
2017-07-18T09:08:45.649Z,1014.87
2017-07-18T09:09:55.883Z,1014.83
2017-07-18T09:11:05.806Z,1014.9
2017-07-18T09:12:16.058Z,1014.91
2017-07-18T09:13:25.713Z,1014.9
2017-07-18T09:14:36.006Z,1014.88
2017-07-18T09:15:45.950Z,1014.89
2017-07-18T09:16:55.575Z,1014.87
2017-07-18T09:18:05.216Z,1014.87
2017-07-18T09:19:14.996Z,1014.85
2017-07-18T09:20:24.923Z,1014.88
2017-07-18T09:21:35.149Z,1014.82
2017-07-18T09:22:45.097Z,1014.85
2017-07-18T09:23:54.418Z,1014.8
2017-07-18T09:25:04.036Z,1014.85
2017-07-18T09:26:14.268Z,1014.8
2017-07-18T09:27:24.190Z,1014.79
2017-07-18T09:28:33.808Z,1014.83
2017-07-18T09:29:44.051Z,1014.79
2017-07-18T09:30:54.128Z,1014.78
2017-07-18T09:32:04.062Z,1014.76
2017-07-18T09:33:14.307Z,1014.75
2017-07-18T09:34:23.633Z,1014.72
2017-07-18T09:35:33.251Z,1014.73
2017-07-18T09:36:43.340Z,1014.73
2017-07-18T09:37:53.279Z,1014.73
2017-07-18T09:39:02.900Z,1014.73
2017-07-18T09:40:12.548Z,1014.67
2017-07-18T09:41:22.518Z,1014.71
2017-07-18T09:42:32.447Z,1014.67
2017-07-18T09:43:42.364Z,1014.68
2017-07-18T09:44:52.286Z,1014.68
2017-07-18T09:46:01.596Z,1014.65
2017-07-18T09:47:11.220Z,1014.68
2017-07-18T09:48:21.135Z,1014.64
2017-07-18T09:49:31.069Z,1014.66
2017-07-18T09:50:41.295Z,1014.66
2017-07-18T09:51:50.611Z,1014.63
2017-07-18T09:53:00.538Z,1014.62
2017-07-18T09:54:10.671Z,1014.56
2017-07-18T09:55:20.285Z,1014.61
2017-07-18T09:56:30.516Z,1014.56
2017-07-18T09:57:40.150Z,1014.56
2017-07-18T09:58:50.386Z,1014.54
2017-07-18T10:00:00.781Z,1014.51
2017-07-18T10:01:10.715Z,1014.55
2017-07-18T10:02:20.634Z,1014.5
2017-07-18T10:03:30.551Z,1014.51
2017-07-18T10:04:40.796Z,1014.49
2017-07-18T10:05:51.066Z,1014.48
2017-07-18T10:07:01.001Z,1014.5
2017-07-18T10:08:10.623Z,1014.42
2017-07-18T10:09:20.240Z,1014.41
2017-07-18T10:10:29.870Z,1014.41
2017-07-18T10:11:39.960Z,1014.38
2017-07-18T10:12:49.913Z,1014.4
2017-07-18T10:13:59.837Z,1014.39
2017-07-18T10:15:09.486Z,1014.32
2017-07-18T10:16:19.417Z,1014.37
2017-07-18T10:17:29.154Z,1014.36
2017-07-18T10:18:39.399Z,1014.31
2017-07-18T10:19:49.630Z,1014.37
2017-07-18T10:20:59.262Z,1014.32
2017-07-18T10:22:09.489Z,1014.4
2017-07-18T10:23:19.817Z,1014.36
2017-07-18T10:24:29.433Z,1014.34
2017-07-18T10:25:38.753Z,1014.34
2017-07-18T10:26:48.680Z,1014.32
2017-07-18T10:27:58.916Z,1014.3
2017-07-18T10:29:08.705Z,1014.29
2017-07-18T10:30:18.635Z,1014.28
2017-07-18T10:31:28.577Z,1014.29
2017-07-18T10:32:38.525Z,1014.29
2017-07-18T10:33:48.764Z,1014.25
2017-07-18T10:34:58.844Z,1014.2
2017-07-18T10:36:08.474Z,1014.2
2017-07-18T10:37:18.709Z,1014.18
2017-07-18T10:38:28.330Z,1014.15
2017-07-18T10:39:38.263Z,1014.09
2017-07-18T10:40:48.806Z,1014.13
2017-07-18T10:41:58.727Z,1014.1
2017-07-18T10:43:08.980Z,1014.11
2017-07-18T10:44:18.608Z,1014.08
2017-07-18T10:45:28.858Z,1014.08
2017-07-18T10:46:38.794Z,1014.09
2017-07-18T10:47:48.430Z,1014.05
2017-07-18T10:48:58.353Z,1014.09
2017-07-18T10:50:07.974Z,1014.02
2017-07-18T10:51:17.930Z,1014.08
2017-07-18T10:53:36.248Z,1014.02
2017-07-18T10:54:46.477Z,1014.02
2017-07-18T10:55:55.809Z,1013.97
2017-07-18T10:57:06.033Z,1013.91
2017-07-18T10:58:16.263Z,1013.89
2017-07-18T10:59:26.184Z,1013.89
2017-07-18T11:00:36.423Z,1013.87
2017-07-18T11:01:46.335Z,1013.78
2017-07-18T11:02:55.960Z,1013.82
2017-07-18T11:04:05.909Z,1013.8
2017-07-18T11:05:15.977Z,1013.78
2017-07-18T11:06:25.626Z,1013.78
2017-07-18T11:07:35.559Z,1013.78
2017-07-18T11:08:45.493Z,1013.8
2017-07-18T11:09:55.112Z,1013.75
2017-07-18T11:11:05.209Z,1013.74
2017-07-18T11:12:15.153Z,1013.76
2017-07-18T11:13:25.070Z,1013.71
2017-07-18T11:14:35.304Z,1013.71
2017-07-18T11:15:45.544Z,1013.68
2017-07-18T11:16:55.984Z,1013.71
2017-07-18T11:18:06.223Z,1013.73
2017-07-18T11:19:16.463Z,1013.66
2017-07-18T11:20:26.718Z,1013.61
2017-07-18T11:21:36.961Z,1013.58
2017-07-18T11:22:46.919Z,1013.54
2017-07-18T11:23:56.842Z,1013.61
2017-07-18T11:25:07.067Z,1013.58
2017-07-18T11:26:16.679Z,1013.55
2017-07-18T11:27:26.910Z,1013.55
2017-07-18T11:28:36.847Z,1013.54
2017-07-18T11:29:46.765Z,1013.52
2017-07-18T11:30:56.383Z,1013.48
2017-07-18T11:32:06.005Z,1013.51
2017-07-18T11:33:15.927Z,1013.51
2017-07-18T11:34:26.030Z,1013.48
2017-07-18T11:35:36.271Z,1013.38
2017-07-18T11:36:46.512Z,1013.4
2017-07-18T11:37:56.439Z,1013.36
2017-07-18T11:39:06.679Z,1013.3
2017-07-18T11:40:16.716Z,1013.37
2017-07-18T11:41:26.055Z,1013.35
2017-07-18T11:42:35.684Z,1013.36
2017-07-18T11:43:45.612Z,1013.35
2017-07-18T11:44:54.937Z,1013.34
2017-07-18T11:46:04.578Z,1013.29
2017-07-18T11:47:14.199Z,1013.28
2017-07-18T11:48:24.124Z,1013.27
2017-07-18T11:49:34.055Z,1013.25
2017-07-18T11:50:44.286Z,1013.25
2017-07-18T11:51:54.058Z,1013.31
2017-07-18T11:53:04.290Z,1013.22
2017-07-18T11:54:14.886Z,1013.23
2017-07-18T11:55:25.112Z,1013.25
2017-07-18T11:56:35.360Z,1013.2
2017-07-18T11:57:45.426Z,1013.23
2017-07-18T11:58:55.664Z,1013.2
2017-07-18T12:00:05.584Z,1013.21
2017-07-18T12:01:15.836Z,1013.2
2017-07-18T12:02:26.077Z,1013.15
2017-07-18T12:03:36.153Z,1013.14
2017-07-18T12:04:46.079Z,1013.09
2017-07-18T12:05:56.305Z,1013.08
2017-07-18T12:07:05.914Z,1013.1
2017-07-18T12:08:15.238Z,1013.08
2017-07-18T12:09:24.965Z,1013.06
2017-07-18T12:10:34.892Z,1013.07
2017-07-18T12:11:44.832Z,1013.06
2017-07-18T12:12:54.757Z,1013.07
2017-07-18T12:14:04.370Z,1013.01
2017-07-18T12:15:14.487Z,1012.95
2017-07-18T12:16:24.403Z,1012.94
2017-07-18T12:17:34.321Z,1012.92
2017-07-18T12:18:43.650Z,1012.95
2017-07-18T12:19:53.589Z,1012.92
2017-07-18T12:21:03.231Z,1012.92
2017-07-18T12:22:13.167Z,1012.87
2017-07-18T12:23:23.418Z,1012.88
2017-07-18T12:24:33.353Z,1012.85
2017-07-18T12:25:43.581Z,1012.85
2017-07-18T12:26:53.698Z,1012.82
2017-07-18T12:28:03.916Z,1012.84
2017-07-18T12:29:13.221Z,1012.81
2017-07-18T12:30:23.482Z,1012.78
2017-07-18T12:31:32.795Z,1012.78
2017-07-18T12:32:42.474Z,1012.71
2017-07-18T12:33:52.700Z,1012.7
2017-07-18T12:35:02.623Z,1012.68
2017-07-18T12:36:12.850Z,1012.69
2017-07-18T12:37:22.775Z,1012.69
2017-07-18T12:38:32.491Z,1012.64
2017-07-18T12:39:42.407Z,1012.63
2017-07-18T12:40:52.348Z,1012.62
2017-07-18T12:42:01.977Z,1012.63
2017-07-18T12:43:11.940Z,1012.61
2017-07-18T12:44:22.174Z,1012.63
2017-07-18T12:45:32.430Z,1012.66
2017-07-18T12:46:42.045Z,1012.6
2017-07-18T12:47:52.281Z,1012.54
2017-07-18T12:49:01.924Z,1012.49
2017-07-18T12:50:11.861Z,1012.5
2017-07-18T12:51:22.081Z,1012.51
2017-07-18T12:52:32.310Z,1012.48
2017-07-18T12:53:42.231Z,1012.42
2017-07-18T12:54:52.464Z,1012.44
2017-07-18T12:56:01.784Z,1012.47
2017-07-18T12:57:11.411Z,1012.4
2017-07-18T12:58:21.643Z,1012.39
2017-07-18T12:59:31.577Z,1012.41
2017-07-18T13:00:41.503Z,1012.36
2017-07-18T13:01:51.281Z,1012.33
2017-07-18T13:03:01.200Z,1012.4
2017-07-18T13:04:11.136Z,1012.37
2017-07-18T13:05:21.073Z,1012.34
2017-07-18T13:06:31.301Z,1012.31
2017-07-18T13:07:40.775Z,1012.27
2017-07-18T13:08:50.707Z,1012.26
2017-07-18T13:10:00.016Z,1012.28
2017-07-18T13:11:09.939Z,1012.27
2017-07-18T13:12:19.558Z,1012.27
2017-07-18T13:13:29.592Z,1012.3
2017-07-18T13:14:39.541Z,1012.29
2017-07-18T13:15:49.770Z,1012.23
2017-07-18T13:17:00.015Z,1012.24
2017-07-18T13:18:09.942Z,1012.22
2017-07-18T13:19:19.864Z,1012.21
2017-07-18T13:20:29.818Z,1012.16
2017-07-18T13:21:39.737Z,1012.12
2017-07-18T13:22:49.981Z,1012.13
2017-07-18T13:23:59.900Z,1012.15
2017-07-18T13:25:09.675Z,1012.12
2017-07-18T13:26:19.286Z,1012.11
2017-07-18T13:27:29.225Z,1012.09
2017-07-18T13:28:38.845Z,1012.07
2017-07-18T13:29:49.096Z,1012.05
2017-07-18T13:30:59.102Z,1012.03
2017-07-18T13:32:09.049Z,1012.01
2017-07-18T13:33:18.975Z,1012.02
2017-07-18T13:34:28.291Z,1012.04
2017-07-18T13:35:38.214Z,1012.05
2017-07-18T13:36:48.604Z,1012.06
2017-07-18T13:37:58.215Z,1012.07
2017-07-18T13:39:08.161Z,1012.04
2017-07-18T13:40:18.405Z,1011.99
2017-07-18T13:41:27.720Z,1012
2017-07-18T13:42:37.489Z,1012.01
2017-07-18T13:43:47.730Z,1011.95
2017-07-18T13:44:57.646Z,1011.98
2017-07-18T13:46:07.901Z,1011.95
2017-07-18T13:47:17.506Z,1011.94
2017-07-18T13:48:27.583Z,1011.93
2017-07-18T13:49:37.513Z,1011.9
2017-07-18T13:50:47.755Z,1011.95
2017-07-18T13:51:57.985Z,1011.92
2017-07-18T13:53:07.308Z,1011.9
2017-07-18T13:54:17.109Z,1011.94
2017-07-18T13:55:27.022Z,1011.92
2017-07-18T13:56:36.938Z,1011.88
2017-07-18T13:57:46.570Z,1011.83
2017-07-18T13:58:56.498Z,1011.85
2017-07-18T14:00:06.115Z,1011.81
2017-07-18T14:01:16.049Z,1011.78
2017-07-18T14:02:25.388Z,1011.79
2017-07-18T14:03:35.307Z,1011.8
2017-07-18T14:04:45.532Z,1011.78
2017-07-18T14:05:55.297Z,1011.8
2017-07-18T14:07:05.563Z,1011.76
2017-07-18T14:08:15.506Z,1011.78
2017-07-18T14:09:25.161Z,1011.74
2017-07-18T14:10:35.411Z,1011.72